Clarksville, Ohio
Current Conditions -  °F | °C
As of 3:54 PM on Friday 28 Nov 2014 (Local Time) from KILN Reporting Station
Clear Clear  
Wind Chill: 24°   Ceiling: Unl
Heat Index: 32°   Visibility: 10mi
Dew Point: 18°   Wind: 9mph
Humidity: 56%   Direction: 180°S
Pressure: 30.22"   Gusts: NA
Location:  39.4°N, 83.98°W
Report Text: KILN 282054Z AUTO 18008KT 10SM CLR 00/M08 A3022 RMK AO2 SLP262 T00001078 56018
Loading
Personal Weather Stations






























Interactive Weather Map New forecast layout! Learn more

10-Day Weather Forecast

Advertisements
Track Severe Weather on mobile